createdAt,value
2023-04-16T00:01:11.107Z,23.92
2023-04-16T00:03:38.995Z,23.08
2023-04-16T00:06:07.155Z,25.10
2023-04-16T00:08:35.600Z,23.40
2023-04-16T00:11:04.684Z,25.30
2023-04-16T00:13:32.410Z,25.00
2023-04-16T00:16:00.179Z,26.38
2023-04-16T00:18:27.860Z,25.02
2023-04-16T00:20:55.567Z,27.25
2023-04-16T00:23:25.150Z,26.55
2023-04-16T00:25:53.714Z,27.13
2023-04-16T00:28:22.783Z,27.60
2023-04-16T00:30:50.524Z,25.85
2023-04-16T00:33:18.262Z,27.90
2023-04-16T00:35:47.039Z,28.33
2023-04-16T00:38:15.048Z,27.33
2023-04-16T00:40:42.695Z,28.13
2023-04-16T00:43:10.510Z,27.92
2023-04-16T00:45:39.660Z,28.83
2023-04-16T00:48:07.412Z,28.20
2023-04-16T00:50:35.437Z,27.98
2023-04-16T00:53:04.026Z,28.70
2023-04-16T00:55:32.314Z,29.00
2023-04-16T00:58:00.124Z,29.63
2023-04-16T01:00:27.862Z,28.93
2023-04-16T01:02:57.160Z,28.33
2023-04-16T01:05:24.938Z,29.10
2023-04-16T01:07:53.394Z,29.10
2023-04-16T01:10:21.345Z,28.70
2023-04-16T01:12:49.043Z,28.77
2023-04-16T01:15:16.747Z,29.75
2023-04-16T01:17:45.783Z,28.52
2023-04-16T01:20:14.992Z,29.17
2023-04-16T01:22:44.124Z,28.27
2023-04-16T01:25:15.718Z,29.42
2023-04-16T01:27:43.447Z,28.95
2023-04-16T01:30:11.730Z,28.67
2023-04-16T01:32:39.795Z,28.67
2023-04-16T01:35:07.798Z,29.42
2023-04-16T01:37:35.455Z,29.45
2023-04-16T01:40:04.873Z,28.92
2023-04-16T01:42:33.261Z,29.33
2023-04-16T01:45:00.995Z,29.52
2023-04-16T01:47:28.704Z,29.83
2023-04-16T01:49:56.471Z,30.02
2023-04-16T01:52:24.276Z,30.20
2023-04-16T01:54:51.964Z,30.75
2023-04-16T01:57:20.996Z,30.38
2023-04-16T01:59:48.729Z,30.13
2023-04-16T02:02:17.191Z,31.20
2023-04-16T02:04:46.107Z,30.75
2023-04-16T02:07:14.040Z,30.83
2023-04-16T02:09:42.205Z,31.67
2023-04-16T02:12:11.420Z,30.85
2023-04-16T02:14:40.542Z,31.70
2023-04-16T02:17:08.244Z,32.08
2023-04-16T02:19:36.028Z,31.13
2023-04-16T02:22:03.879Z,30.48
2023-04-16T02:24:31.514Z,29.60
2023-04-16T02:26:59.232Z,31.02
2023-04-16T02:29:26.879Z,30.60
2023-04-16T02:31:56.035Z,30.77
2023-04-16T02:34:23.694Z,30.13
2023-04-16T02:36:51.443Z,30.10
2023-04-16T02:39:19.398Z,28.48
2023-04-16T02:41:47.053Z,29.48
2023-04-16T02:44:14.844Z,30.15
2023-04-16T02:46:42.556Z,28.40
2023-04-16T02:49:11.788Z,29.70
2023-04-16T02:51:39.595Z,29.30
2023-04-16T02:54:07.338Z,29.25
2023-04-16T02:56:35.013Z,27.80
2023-04-16T02:59:02.800Z,28.95
2023-04-16T03:01:30.477Z,28.70
2023-04-16T03:03:58.327Z,28.98
2023-04-16T03:06:27.544Z,29.45
2023-04-16T03:08:55.189Z,29.83
2023-04-16T03:11:23.677Z,29.25
2023-04-16T03:13:51.406Z,31.15
2023-04-16T03:16:19.151Z,29.83
2023-04-16T03:18:46.831Z,31.42
2023-04-16T03:21:14.509Z,30.55
2023-04-16T03:23:43.625Z,31.00
2023-04-16T03:26:11.342Z,31.05
2023-04-16T03:28:39.018Z,30.55
2023-04-16T03:31:06.711Z,31.33
2023-04-16T03:33:34.340Z,29.43
2023-04-16T03:36:01.983Z,30.88
2023-04-16T03:38:29.715Z,30.13
2023-04-16T03:40:58.827Z,30.08
2023-04-16T03:43:26.571Z,30.70
2023-04-16T03:45:54.242Z,30.42
2023-04-16T03:48:21.971Z,30.52
2023-04-16T03:50:49.678Z,32.17
2023-04-16T03:53:17.358Z,29.08
2023-04-16T03:55:45.094Z,30.13
2023-04-16T03:58:14.137Z,30.90
2023-04-16T04:00:43.630Z,30.27
2023-04-16T04:03:11.534Z,31.17
2023-04-16T04:05:40.467Z,31.80
2023-04-16T04:08:08.642Z,30.40
2023-04-16T04:10:37.348Z,31.07
2023-04-16T04:13:06.236Z,30.98
2023-04-16T04:15:35.376Z,31.13
2023-04-16T04:18:03.127Z,30.73
2023-04-16T04:20:30.849Z,30.77
2023-04-16T04:22:58.886Z,31.08
2023-04-16T04:25:26.924Z,31.17
2023-04-16T04:27:54.684Z,30.70
2023-04-16T04:30:22.422Z,30.35
2023-04-16T04:32:51.639Z,32.25
2023-04-16T04:35:19.399Z,33.42
2023-04-16T04:37:47.076Z,32.45
2023-04-16T04:40:14.877Z,32.27
2023-04-16T04:42:42.571Z,32.63
2023-04-16T04:45:11.535Z,33.80
2023-04-16T04:47:39.339Z,32.22
2023-04-16T04:50:09.668Z,32.60
2023-04-16T04:52:37.504Z,32.50
2023-04-16T04:55:05.712Z,33.45
2023-04-16T04:57:33.445Z,33.83
2023-04-16T05:00:03.355Z,32.97
2023-04-16T05:02:31.206Z,31.80
2023-04-16T05:04:59.053Z,32.80
2023-04-16T05:07:28.182Z,31.27
2023-04-16T05:09:56.021Z,34.05
2023-04-16T05:12:23.732Z,33.85
2023-04-16T05:14:51.395Z,33.25
2023-04-16T05:17:19.126Z,33.53
2023-04-16T05:19:46.880Z,32.13
2023-04-16T05:22:14.501Z,33.77
2023-04-16T05:24:43.562Z,32.42
2023-04-16T05:27:11.300Z,33.88
2023-04-16T05:29:39.006Z,33.70
2023-04-16T05:32:06.634Z,34.45
2023-04-16T05:34:34.347Z,32.05
2023-04-16T05:37:02.203Z,32.60
2023-04-16T05:39:29.855Z,33.03
2023-04-16T05:41:58.968Z,33.17
2023-04-16T05:44:27.067Z,31.67
2023-04-16T05:46:54.788Z,31.58
2023-04-16T05:49:22.552Z,31.05
2023-04-16T05:51:51.004Z,31.00
2023-04-16T05:54:18.886Z,31.73
2023-04-16T05:56:46.651Z,32.13
2023-04-16T05:59:15.658Z,32.05
2023-04-16T06:01:43.369Z,32.75
2023-04-16T06:04:11.256Z,30.80
2023-04-16T06:06:40.125Z,30.48
2023-04-16T06:09:07.964Z,29.38
2023-04-16T06:11:36.552Z,29.98
2023-04-16T06:14:04.208Z,30.08
2023-04-16T06:16:33.378Z,30.60
2023-04-16T06:19:01.238Z,29.13
2023-04-16T06:21:29.617Z,29.48
2023-04-16T06:23:57.329Z,29.08
2023-04-16T06:26:25.029Z,28.48
2023-04-16T06:28:52.690Z,28.75
2023-04-16T06:31:20.726Z,28.35
2023-04-16T06:33:49.964Z,30.95
2023-04-16T06:36:17.804Z,31.33
2023-04-16T06:38:45.759Z,29.85
2023-04-16T06:41:14.305Z,28.35
2023-04-16T06:43:41.986Z,28.60
2023-04-16T06:46:09.696Z,27.75
2023-04-16T06:48:37.397Z,27.25
2023-04-16T06:51:06.609Z,27.40
2023-04-16T06:53:34.301Z,27.15
2023-04-16T06:56:01.949Z,26.60
2023-04-16T06:58:29.678Z,27.03
2023-04-16T07:00:57.339Z,27.05
2023-04-16T07:03:25.238Z,27.77
2023-04-16T07:05:52.976Z,27.30
2023-04-16T07:08:22.057Z,27.20
2023-04-16T07:10:49.770Z,26.70
2023-04-16T07:13:18.531Z,28.23
2023-04-16T07:15:46.148Z,26.83
2023-04-16T07:18:13.903Z,26.50
2023-04-16T07:20:41.672Z,27.60
2023-04-16T07:23:09.354Z,28.80
2023-04-16T07:25:38.454Z,27.90
2023-04-16T07:28:06.049Z,27.87
2023-04-16T07:30:34.655Z,27.95
2023-04-16T07:33:02.542Z,28.77
2023-04-16T07:35:30.795Z,27.30
2023-04-16T07:37:58.452Z,28.98
2023-04-16T07:40:26.264Z,27.67
2023-04-16T07:42:56.091Z,28.35
2023-04-16T07:45:24.965Z,28.17
2023-04-16T07:47:52.673Z,27.88
2023-04-16T07:50:20.414Z,27.75
2023-04-16T07:52:48.100Z,27.60
2023-04-16T07:55:15.847Z,29.00
2023-04-16T07:57:43.610Z,27.77
2023-04-16T08:00:13.635Z,27.75
2023-04-16T08:02:41.616Z,28.67
2023-04-16T08:05:09.633Z,27.55
2023-04-16T08:07:37.536Z,28.60
2023-04-16T08:10:06.330Z,28.67
2023-04-16T08:12:34.059Z,29.75
2023-04-16T08:15:01.775Z,28.90
2023-04-16T08:17:30.993Z,28.95
2023-04-16T08:19:58.694Z,28.42
2023-04-16T08:22:26.351Z,28.52
2023-04-16T08:24:54.087Z,27.87
2023-04-16T08:27:21.773Z,28.58
2023-04-16T08:29:49.599Z,27.05
2023-04-16T08:32:17.261Z,35.20
2023-04-16T08:34:46.471Z,25.77
2023-04-16T08:37:14.165Z,26.77
2023-04-16T08:39:41.911Z,25.60
2023-04-16T08:42:14.159Z,26.08
2023-04-16T08:44:46.427Z,26.58
2023-04-16T08:47:16.753Z,25.73
2023-04-16T08:49:46.732Z,26.20
2023-04-16T08:52:17.171Z,24.05
2023-04-16T08:54:56.533Z,23.75
2023-04-16T08:57:25.508Z,24.10
2023-04-16T08:59:53.334Z,24.13
2023-04-16T09:02:21.246Z,25.23
2023-04-16T09:04:51.752Z,25.92
2023-04-16T09:07:20.868Z,24.43
2023-04-16T09:09:49.753Z,24.23
2023-04-16T09:12:18.613Z,24.92
2023-04-16T09:14:49.705Z,25.23
2023-04-16T09:17:17.908Z,25.35
2023-04-16T09:19:45.769Z,25.20
2023-04-16T09:22:14.910Z,24.48
2023-04-16T09:24:42.936Z,24.08
2023-04-16T09:27:11.087Z,24.25
2023-04-16T09:29:40.149Z,24.92
2023-04-16T09:32:09.692Z,24.30
2023-04-16T09:34:55.762Z,23.85
2023-04-16T09:37:25.825Z,23.58
2023-04-16T09:39:58.295Z,23.42
2023-04-16T09:42:27.395Z,22.98
2023-04-16T09:44:57.810Z,23.23
2023-04-16T09:47:28.388Z,22.02
2023-04-16T09:50:00.215Z,22.70
2023-04-16T09:52:29.312Z,22.60
2023-04-16T09:54:56.994Z,22.73
2023-04-16T09:57:26.143Z,22.88
2023-04-16T09:59:54.444Z,23.40
2023-04-16T10:02:23.288Z,22.05
2023-04-16T10:04:52.078Z,22.38
2023-04-16T10:07:20.612Z,22.17
2023-04-16T10:09:50.570Z,21.73
2023-04-16T10:12:18.292Z,22.67
2023-04-16T10:14:48.375Z,21.60
2023-04-16T10:17:17.906Z,21.83
2023-04-16T10:19:45.804Z,22.17
2023-04-16T10:22:13.808Z,22.35
2023-04-16T10:24:42.320Z,22.40
2023-04-16T10:27:12.316Z,21.08
2023-04-16T10:29:40.093Z,20.70
2023-04-16T10:32:07.866Z,21.20
2023-04-16T10:34:36.430Z,21.60
2023-04-16T10:37:04.195Z,20.43
2023-04-16T10:39:33.000Z,21.48
2023-04-16T10:42:12.988Z,21.27
2023-04-16T10:44:44.290Z,22.17
2023-04-16T10:47:13.880Z,21.75
2023-04-16T10:49:43.941Z,20.35
2023-04-16T10:52:13.148Z,22.23
2023-04-16T10:54:41.328Z,20.85
2023-04-16T10:57:15.999Z,21.27
2023-04-16T10:59:44.873Z,20.67
2023-04-16T11:02:15.159Z,21.30
2023-04-16T11:04:44.321Z,20.15
2023-04-16T11:07:20.606Z,19.20
2023-04-16T11:09:55.110Z,18.80
2023-04-16T11:12:27.210Z,19.05
2023-04-16T11:14:56.025Z,19.02
2023-04-16T11:17:23.751Z,19.85
2023-04-16T11:19:53.703Z,19.60
2023-04-16T11:22:21.662Z,19.58
2023-04-16T11:24:55.341Z,19.40
2023-04-16T11:27:24.734Z,19.42
2023-04-16T11:29:59.952Z,19.35
2023-04-16T11:32:27.706Z,19.92
2023-04-16T11:34:55.431Z,19.20
2023-04-16T11:37:28.045Z,20.02
2023-04-16T11:39:55.734Z,18.30
2023-04-16T11:42:24.790Z,19.48
2023-04-16T11:44:54.391Z,19.23
2023-04-16T11:47:22.315Z,20.17
2023-04-16T11:49:50.200Z,19.30
2023-04-16T11:52:28.302Z,19.42
2023-04-16T11:54:56.446Z,19.00
2023-04-16T11:57:29.889Z,18.88
2023-04-16T12:00:03.050Z,18.50
2023-04-16T12:02:39.033Z,18.52
2023-04-16T12:05:08.495Z,16.88
2023-04-16T12:07:45.939Z,17.58
2023-04-16T12:10:14.078Z,16.70
2023-04-16T12:12:43.135Z,17.37
2023-04-16T12:15:11.180Z,17.33
2023-04-16T12:17:39.349Z,16.83
2023-04-16T12:20:11.094Z,18.52
2023-04-16T12:22:40.804Z,17.58
2023-04-16T12:25:11.882Z,17.00
2023-04-16T12:27:51.336Z,15.85
2023-04-16T12:30:23.398Z,15.50
2023-04-16T12:32:52.974Z,15.23
2023-04-16T12:35:35.625Z,15.52
2023-04-16T12:38:03.576Z,16.73
2023-04-16T12:40:31.334Z,16.33
2023-04-16T12:43:00.397Z,16.27
2023-04-16T12:45:28.090Z,15.60
2023-04-16T12:47:55.938Z,15.20
2023-04-16T12:50:23.819Z,15.00
2023-04-16T12:52:51.589Z,15.98
2023-04-16T12:55:19.433Z,15.35
2023-04-16T12:57:48.884Z,14.88
2023-04-16T13:00:18.545Z,14.38
2023-04-16T13:02:46.414Z,15.45
2023-04-16T13:05:16.273Z,15.07
2023-04-16T13:07:44.196Z,15.47
2023-04-16T13:10:11.845Z,15.07
2023-04-16T13:12:39.602Z,15.15
2023-04-16T13:15:08.374Z,15.85
2023-04-16T13:17:37.526Z,14.48
2023-04-16T13:20:05.868Z,14.32
2023-04-16T13:22:33.524Z,14.85
2023-04-16T13:25:01.153Z,14.82
2023-04-16T13:27:28.754Z,15.10
2023-04-16T13:29:56.581Z,15.68
2023-04-16T13:32:24.400Z,15.90
2023-04-16T13:34:53.463Z,14.45
2023-04-16T13:37:21.135Z,14.70
2023-04-16T13:39:48.823Z,14.93
2023-04-16T13:42:16.844Z,15.45
2023-04-16T13:44:46.695Z,14.52
2023-04-16T13:47:14.324Z,14.65
2023-04-16T13:49:42.043Z,13.68
2023-04-16T13:52:11.149Z,14.43
2023-04-16T13:54:38.864Z,13.33
2023-04-16T13:57:06.619Z,13.00
2023-04-16T13:59:34.329Z,13.13
2023-04-16T14:02:02.125Z,12.65
2023-04-16T14:04:29.957Z,11.63
2023-04-16T14:06:57.690Z,13.32
2023-04-16T14:09:27.308Z,16.70
2023-04-16T14:11:55.142Z,17.77
2023-04-16T14:14:22.881Z,17.42
2023-04-16T14:16:50.749Z,18.15
2023-04-16T14:19:18.607Z,18.13
2023-04-16T14:21:46.347Z,16.90
2023-04-16T14:24:14.060Z,17.55
2023-04-16T14:26:44.058Z,19.65
2023-04-16T14:29:11.975Z,20.07
2023-04-16T14:31:39.819Z,20.85
2023-04-16T14:34:07.502Z,20.50
2023-04-16T14:37:38.532Z,20.52
2023-04-16T14:40:08.956Z,20.27
2023-04-16T14:42:37.554Z,21.60
2023-04-16T14:45:06.883Z,20.48
2023-04-16T14:47:34.929Z,20.92
2023-04-16T14:50:03.247Z,19.80
2023-04-16T14:52:32.121Z,18.85
2023-04-16T14:55:01.173Z,19.83
2023-04-16T14:57:28.812Z,19.63
2023-04-16T14:59:56.583Z,18.67
2023-04-16T15:02:24.451Z,19.60
2023-04-16T15:04:52.214Z,19.55
2023-04-16T15:07:19.949Z,18.52
2023-04-16T15:09:47.610Z,19.13
2023-04-16T15:12:19.024Z,19.98
2023-04-16T15:14:46.829Z,19.50
2023-04-16T15:17:14.491Z,19.48
2023-04-16T15:19:42.239Z,19.58
2023-04-16T15:22:09.905Z,18.90
2023-04-16T15:24:37.677Z,19.88
2023-04-16T15:27:07.010Z,19.42
2023-04-16T15:29:36.775Z,20.23
2023-04-16T15:32:04.603Z,21.20
2023-04-16T15:34:32.293Z,22.10
2023-04-16T15:36:59.937Z,18.50
2023-04-16T15:39:27.648Z,19.13
2023-04-16T15:42:01.257Z,20.02
2023-04-16T15:44:31.755Z,19.90
2023-04-16T15:47:01.223Z,20.83
2023-04-16T15:49:29.001Z,18.85
2023-04-16T15:51:56.726Z,18.88
2023-04-16T15:54:24.714Z,18.30
2023-04-16T15:56:52.493Z,18.73
2023-04-16T15:59:20.181Z,18.60
2023-04-16T16:01:47.923Z,17.88
2023-04-16T16:04:17.166Z,17.90
2023-04-16T16:06:45.105Z,15.98
2023-04-16T16:09:12.968Z,16.67
2023-04-16T16:11:41.685Z,15.93
2023-04-16T16:14:09.355Z,16.92
2023-04-16T16:16:37.114Z,16.75
2023-04-16T16:19:04.773Z,17.48
2023-04-16T16:21:33.874Z,16.95
2023-04-16T16:24:01.749Z,16.47
2023-04-16T16:26:29.448Z,16.63
2023-04-16T16:28:58.066Z,17.52
2023-04-16T16:31:25.989Z,17.85
2023-04-16T16:33:53.756Z,17.35
2023-04-16T16:36:21.411Z,17.03
2023-04-16T16:38:50.551Z,17.20
2023-04-16T16:41:18.289Z,17.95
2023-04-16T16:43:46.022Z,17.77
2023-04-16T16:46:13.758Z,17.17
2023-04-16T16:48:41.459Z,17.55
2023-04-16T16:51:11.039Z,19.52
2023-04-16T16:53:38.704Z,27.00
2023-04-16T16:56:07.991Z,29.02
2023-04-16T16:58:35.788Z,19.15
2023-04-16T17:01:03.795Z,19.60
2023-04-16T17:03:31.602Z,20.25
2023-04-16T17:06:00.232Z,25.15
2023-04-16T17:08:28.912Z,19.83
2023-04-16T17:10:56.606Z,19.45
2023-04-16T17:13:25.757Z,16.50
2023-04-16T17:15:53.476Z,18.45
2023-04-16T17:18:21.114Z,18.20
2023-04-16T17:20:48.800Z,18.40
2023-04-16T17:23:16.533Z,17.77
2023-04-16T17:25:44.234Z,23.70
2023-04-16T17:28:11.931Z,21.13
2023-04-16T17:30:40.988Z,12.63
2023-04-16T17:33:08.655Z,11.88
2023-04-16T17:35:36.457Z,12.32
2023-04-16T17:38:04.176Z,12.10
2023-04-16T17:40:31.873Z,11.25
2023-04-16T17:42:59.550Z,12.27
2023-04-16T17:45:27.440Z,12.25
2023-04-16T17:47:56.519Z,12.23
2023-04-16T17:50:24.539Z,12.75
2023-04-16T17:52:52.211Z,13.23
2023-04-16T17:55:19.901Z,13.20
2023-04-16T17:57:47.893Z,12.73
2023-04-16T18:00:16.293Z,12.73
2023-04-16T18:02:44.152Z,13.97
2023-04-16T18:05:13.471Z,13.35
2023-04-16T18:07:41.299Z,13.60
2023-04-16T18:10:10.677Z,13.35
2023-04-16T18:12:38.431Z,13.10
2023-04-16T18:15:07.114Z,13.55
2023-04-16T18:17:34.844Z,15.07
2023-04-16T18:20:03.723Z,14.52
2023-04-16T18:22:32.855Z,15.55
2023-04-16T18:25:00.576Z,13.30
2023-04-16T18:27:28.824Z,13.98
2023-04-16T18:29:56.689Z,13.88
2023-04-16T18:32:24.597Z,13.75
2023-04-16T18:34:52.745Z,13.33
2023-04-16T18:37:20.666Z,13.57
2023-04-16T18:39:49.863Z,14.30
2023-04-16T18:42:17.657Z,14.95
2023-04-16T18:44:45.322Z,14.30
2023-04-16T18:47:12.959Z,14.20
2023-04-16T18:49:40.823Z,13.88
2023-04-16T18:52:08.754Z,14.90
2023-04-16T18:54:36.551Z,14.80
2023-04-16T18:57:05.780Z,16.70
2023-04-16T18:59:33.775Z,15.73
2023-04-16T19:02:01.595Z,17.30
2023-04-16T19:04:29.481Z,18.45
2023-04-16T19:06:57.179Z,19.23
2023-04-16T19:09:26.365Z,19.42
2023-04-16T19:11:54.112Z,19.10
2023-04-16T19:14:23.355Z,19.30
2023-04-16T19:16:50.985Z,20.50
2023-04-16T19:19:18.664Z,20.63
2023-04-16T19:21:46.464Z,21.00
2023-04-16T19:24:14.148Z,21.20
2023-04-16T19:26:41.960Z,20.52
2023-04-16T19:29:09.950Z,20.98
2023-04-16T19:31:39.334Z,22.50
2023-04-16T19:34:07.433Z,20.92
2023-04-16T19:36:35.128Z,22.20
2023-04-16T19:39:03.734Z,21.55
2023-04-16T19:41:31.488Z,21.35
2023-04-16T19:43:59.202Z,22.05
2023-04-16T19:46:26.881Z,22.63
2023-04-16T19:48:56.799Z,22.63
2023-04-16T19:51:24.513Z,23.65
2023-04-16T19:53:52.655Z,22.27
2023-04-16T19:56:20.552Z,21.60
2023-04-16T19:58:48.321Z,24.15
2023-04-16T20:01:16.333Z,21.50
2023-04-16T20:03:44.215Z,21.30
2023-04-16T20:06:13.514Z,20.95
2023-04-16T20:08:41.476Z,20.33
2023-04-16T20:11:09.916Z,20.85
2023-04-16T20:13:38.839Z,20.53
2023-04-16T20:16:09.282Z,20.98
2023-04-16T20:18:41.282Z,20.83
2023-04-16T20:21:09.009Z,21.47
2023-04-16T20:23:38.192Z,21.60
2023-04-16T20:26:05.998Z,22.55
2023-04-16T20:28:33.718Z,22.52
2023-04-16T20:31:01.450Z,22.55
2023-04-16T20:33:29.214Z,22.38
2023-04-16T20:35:57.196Z,22.38
2023-04-16T20:38:25.081Z,23.80
2023-04-16T20:41:06.227Z,23.13
2023-04-16T20:43:38.372Z,22.98
2023-04-16T20:46:06.291Z,23.50
2023-04-16T20:48:34.014Z,24.67
2023-04-16T20:51:02.808Z,25.05
2023-04-16T20:53:31.442Z,25.40
2023-04-16T20:56:01.065Z,25.58
2023-04-16T20:58:28.880Z,26.17
2023-04-16T21:00:57.548Z,25.02
2023-04-16T21:03:25.779Z,25.48
2023-04-16T21:05:54.511Z,24.88
2023-04-16T21:08:22.643Z,24.73
2023-04-16T21:10:50.952Z,24.75
2023-04-16T21:13:20.727Z,26.10
2023-04-16T21:15:48.579Z,25.20
2023-04-16T21:18:17.023Z,24.65
2023-04-16T21:20:44.773Z,24.90
2023-04-16T21:23:12.559Z,23.93
2023-04-16T21:25:40.229Z,24.60
2023-04-16T21:28:07.930Z,23.67
2023-04-16T21:30:38.258Z,23.88
2023-04-16T21:33:06.613Z,24.75
2023-04-16T21:35:34.617Z,25.45
2023-04-16T21:38:02.315Z,24.48
2023-04-16T21:40:30.022Z,25.50
2023-04-16T21:42:57.657Z,23.10
2023-04-16T21:45:25.362Z,23.73
2023-04-16T21:47:54.474Z,24.47
2023-04-16T21:50:22.232Z,23.77
2023-04-16T21:52:49.909Z,23.77
2023-04-16T21:55:17.716Z,24.10
2023-04-16T21:57:45.386Z,23.95
2023-04-16T22:00:14.356Z,24.52
2023-04-16T22:02:43.032Z,23.58
2023-04-16T22:05:12.491Z,23.77
2023-04-16T22:07:40.558Z,25.02
2023-04-16T22:10:09.871Z,24.42
2023-04-16T22:12:39.823Z,25.57
2023-04-16T22:15:09.160Z,25.10
2023-04-16T22:17:36.977Z,24.73
2023-04-16T22:20:08.527Z,25.50
2023-04-16T22:22:37.639Z,26.97
2023-04-16T22:25:05.966Z,25.77
2023-04-16T22:27:33.960Z,26.25
2023-04-16T22:30:01.950Z,26.33
2023-04-16T22:32:30.937Z,25.55
2023-04-16T22:34:58.718Z,25.90
2023-04-16T22:37:26.575Z,26.02
2023-04-16T22:39:55.780Z,26.45
2023-04-16T22:42:24.201Z,26.13
2023-04-16T22:44:51.983Z,25.33
2023-04-16T22:47:19.747Z,25.05
2023-04-16T22:49:47.687Z,26.38
2023-04-16T22:52:15.419Z,25.35
2023-04-16T22:54:43.048Z,26.55
2023-04-16T22:57:12.107Z,26.33
2023-04-16T22:59:39.808Z,24.58
2023-04-16T23:02:07.539Z,26.15
2023-04-16T23:04:35.397Z,26.15
2023-04-16T23:07:03.222Z,26.23
2023-04-16T23:09:30.996Z,26.63
2023-04-16T23:11:58.743Z,26.98
2023-04-16T23:14:27.862Z,26.63
2023-04-16T23:16:55.576Z,26.10
2023-04-16T23:19:23.319Z,26.67
2023-04-16T23:21:51.011Z,26.03
2023-04-16T23:24:18.712Z,26.27
2023-04-16T23:26:46.447Z,25.87
2023-04-16T23:29:14.173Z,26.65
2023-04-16T23:31:43.242Z,26.90
2023-04-16T23:34:11.348Z,26.58
2023-04-16T23:36:39.248Z,26.20
2023-04-16T23:39:06.923Z,27.92
2023-04-16T23:41:34.615Z,28.05
2023-04-16T23:44:02.397Z,26.13
2023-04-16T23:46:30.131Z,26.40
2023-04-16T23:48:59.302Z,27.20
2023-04-16T23:51:27.009Z,27.17
2023-04-16T23:53:54.662Z,27.10
2023-04-16T23:56:22.380Z,27.42
2023-04-16T23:58:50.066Z,27.42
